Time;durP1;ratioP1;P1;durP2;ratioP2;P2;SDS_P1;SDS_P2;PMS_P1;PMS_P2;Temp;Humidity;BMP_temperature;BMP_pressure;BME280_temperature;BME280_humidity;BME280_pressure;Samples;Min_cycle;Max_cycle;Signal;HPM_P1;HPM_P2
2023/08/06 00:02:44;;;;;;;1.63;1.52;;;;;;;18.89;88.24;100725.34;6115822;28;20232;-65
2023/08/06 00:06:05;;;;;;;1.63;1.52;;;;;;;18.92;88.68;100719.47;6116207;28;20624;-66
2023/08/06 00:09:26;;;;;;;3.90;1.60;;;;;;;19.02;89.06;100716.44;6121040;28;20527;-65
2023/08/06 00:12:48;;;;;;;1.65;1.27;;;;;;;18.90;89.39;100712.53;6116596;28;20235;-66
2023/08/06 00:16:11;;;;;;;1.38;1.27;;;;;;;18.80;89.82;100710.09;6111492;28;20271;-65
2023/08/06 00:19:32;;;;;;;1.58;1.48;;;;;;;18.91;89.75;100706.88;6109171;28;20227;-66
2023/08/06 00:22:53;;;;;;;1.27;1.20;;;;;;;18.93;89.37;100706.66;6118694;28;20319;-65
2023/08/06 00:26:14;;;;;;;2.05;1.90;;;;;;;18.91;89.85;100706.00;6113574;28;20232;-65
2023/08/06 00:29:35;;;;;;;1.50;1.40;;;;;;;18.94;89.91;100691.97;6114258;28;20232;-64
2023/08/06 00:32:57;;;;;;;1.73;1.63;;;;;;;19.01;90.27;100690.13;6102322;29;20229;-66
2023/08/06 00:36:18;;;;;;;2.20;1.73;;;;;;;18.97;90.18;100686.09;6111493;28;20688;-66
2023/08/06 00:39:39;;;;;;;1.58;1.48;;;;;;;18.95;90.29;100689.03;6109279;28;20232;-66
2023/08/06 00:43:00;;;;;;;1.75;1.65;;;;;;;18.91;90.48;100692.34;6090268;29;20315;-65
2023/08/06 00:46:21;;;;;;;1.50;1.40;;;;;;;18.90;90.82;100685.22;6106568;28;20228;-65
2023/08/06 00:49:45;;;;;;;2.67;2.28;;;;;;;18.97;90.92;100684.22;6116953;28;20239;-66
2023/08/06 00:53:05;;;;;;;1.73;1.63;;;;;;;18.97;90.79;100675.19;6110558;28;20232;-66
2023/08/06 00:56:26;;;;;;;1.70;1.60;;;;;;;18.95;90.77;100669.91;6100324;29;20331;-66
2023/08/06 00:59:48;;;;;;;1.67;1.58;;;;;;;18.79;91.24;100670.19;6108909;29;20251;-66
2023/08/06 01:03:09;;;;;;;2.30;2.03;;;;;;;18.92;91.35;100655.81;6105061;28;20228;-65
2023/08/06 01:06:53;;;;;;;3.15;2.10;;;;;;;18.91;91.42;100646.75;6104863;28;20252;-66
2023/08/06 01:10:24;;;;;;;2.00;1.80;;;;;;;18.87;91.51;100656.38;6101310;28;20233;-65
2023/08/06 01:13:49;;;;;;;3.33;2.38;;;;;;;18.79;91.65;100663.88;6107513;28;20251;-66
2023/08/06 01:17:11;;;;;;;1.65;1.55;;;;;;;18.75;92.20;100652.50;6115425;28;20507;-65
2023/08/06 01:20:33;;;;;;;2.63;1.85;;;;;;;18.75;92.31;100646.19;6108707;28;20239;-65
2023/08/06 01:23:54;;;;;;;1.70;1.60;;;;;;;18.74;92.43;100636.28;6102392;28;20244;-65
2023/08/06 01:27:21;;;;;;;2.33;2.13;;;;;;;18.72;92.70;100631.00;6107640;28;20322;-66
2023/08/06 01:30:43;;;;;;;2.00;1.90;;;;;;;18.74;92.68;100631.66;6107160;28;20335;-65
2023/08/06 01:34:08;;;;;;;3.97;1.83;;;;;;;18.67;92.41;100630.75;6115678;28;20824;-66
2023/08/06 01:37:30;;;;;;;2.03;1.75;;;;;;;18.63;93.28;100623.97;6109175;28;20236;-65
2023/08/06 01:40:51;;;;;;;2.25;2.08;;;;;;;18.43;93.06;100633.81;6124536;28;20475;-66
2023/08/06 01:44:12;;;;;;;1.70;1.60;;;;;;;18.58;93.03;100628.34;6120969;28;20263;-66
2023/08/06 01:47:34;;;;;;;2.30;1.60;;;;;;;18.64;93.04;100616.63;6125579;28;20830;-66
2023/08/06 01:50:55;;;;;;;1.65;1.50;;;;;;;18.69;93.35;100614.19;6113878;28;20248;-66
2023/08/06 01:54:17;;;;;;;1.55;1.45;;;;;;;18.60;93.46;100607.16;6119988;28;20267;-65
2023/08/06 01:57:44;;;;;;;2.00;1.80;;;;;;;18.58;93.82;100603.75;6118745;28;20232;-65
2023/08/06 02:01:05;;;;;;;5.13;1.83;;;;;;;18.61;94.09;100597.94;6116217;28;20232;-66
2023/08/06 02:04:26;;;;;;;1.90;1.80;;;;;;;18.66;94.14;100603.63;6118653;28;20224;-65
2023/08/06 02:07:47;;;;;;;2.05;1.85;;;;;;;18.66;94.60;100592.72;6119737;28;20276;-65
2023/08/06 02:11:09;;;;;;;2.47;2.33;;;;;;;18.66;94.65;100590.84;6114302;28;20228;-66
2023/08/06 02:14:30;;;;;;;3.15;2.40;;;;;;;18.66;94.66;100599.03;6110423;28;20236;-66
2023/08/06 02:17:54;;;;;;;2.13;2.00;;;;;;;18.72;94.48;100590.03;6095146;28;20229;-66
2023/08/06 02:21:15;;;;;;;5.20;2.55;;;;;;;18.72;94.49;100595.50;6105655;28;20232;-65
2023/08/06 02:24:35;;;;;;;3.65;2.33;;;;;;;18.58;94.99;100588.25;6118619;28;20235;-66
2023/08/06 02:27:58;;;;;;;2.53;2.17;;;;;;;18.59;95.43;100589.06;6107288;28;20232;-66
2023/08/06 02:31:19;;;;;;;2.80;2.55;;;;;;;18.61;95.28;100590.56;6114148;29;20228;-66
2023/08/06 02:34:40;;;;;;;3.78;2.75;;;;;;;18.64;94.46;100581.13;6124520;28;20263;-66
2023/08/06 02:38:01;;;;;;;2.50;2.30;;;;;;;18.60;94.34;100575.22;6099862;29;20267;-65
2023/08/06 02:41:22;;;;;;;2.38;2.28;;;;;;;18.57;94.20;100567.41;6113342;28;20618;-65
2023/08/06 02:44:45;;;;;;;2.00;1.85;;;;;;;18.57;94.16;100559.22;6119155;28;20243;-65
2023/08/06 02:48:06;;;;;;;2.50;2.30;;;;;;;18.63;93.81;100554.88;6113350;28;20240;-66
2023/08/06 02:51:26;;;;;;;2.72;2.53;;;;;;;18.62;93.79;100562.22;6112075;28;20315;-66
2023/08/06 02:54:47;;;;;;;2.13;1.90;;;;;;;18.53;93.81;100555.19;6109079;28;20509;-66
2023/08/06 02:58:10;;;;;;;2.53;2.33;;;;;;;18.49;93.77;100559.34;6105233;28;20382;-66
2023/08/06 03:01:36;;;;;;;8.80;2.65;;;;;;;18.39;93.81;100545.16;6120099;28;20266;-66
2023/08/06 03:05:06;;;;;;;2.72;2.47;;;;;;;18.36;94.04;100543.66;6118007;28;20238;-66
2023/08/06 03:08:30;;;;;;;3.00;2.72;;;;;;;18.36;93.84;100540.94;6113572;28;20704;-66
2023/08/06 03:11:51;;;;;;;1.95;1.85;;;;;;;18.41;93.88;100536.78;6114762;28;20236;-66
2023/08/06 03:15:15;;;;;;;2.63;2.40;;;;;;;18.44;93.72;100550.06;6100128;28;20573;-64
2023/08/06 03:18:39;;;;;;;2.60;2.40;;;;;;;18.38;94.07;100552.50;6102104;28;20228;-67
2023/08/06 03:22:06;;;;;;;2.85;2.13;;;;;;;18.31;94.10;100548.84;6108784;28;20231;-65
2023/08/06 03:25:31;;;;;;;3.63;3.33;;;;;;;18.28;94.32;100551.13;6114326;28;20617;-65
2023/08/06 03:28:52;;;;;;;4.90;2.70;;;;;;;18.21;94.08;100545.59;6118791;28;20243;-65
2023/08/06 03:32:13;;;;;;;2.85;2.65;;;;;;;18.29;94.07;100537.28;6122148;28;20633;-65
2023/08/06 03:35:37;;;;;;;3.00;2.70;;;;;;;18.22;93.94;100532.81;6103682;28;20875;-66
2023/08/06 03:38:59;;;;;;;3.13;2.83;;;;;;;18.21;94.25;100528.41;6108194;29;20236;-64
2023/08/06 03:42:22;;;;;;;3.45;3.17;;;;;;;18.20;94.31;100526.69;6110809;28;20223;-66
2023/08/06 03:45:42;;;;;;;3.28;2.78;;;;;;;18.18;94.61;100529.63;6105341;29;20236;-66
2023/08/06 03:49:05;;;;;;;3.67;3.17;;;;;;;18.20;94.43;100515.78;6107786;28;20241;-66
2023/08/06 03:52:27;;;;;;;3.28;2.78;;;;;;;18.14;94.20;100517.41;6110475;28;20318;-66
2023/08/06 03:55:48;;;;;;;2.10;1.98;;;;;;;18.07;93.73;100519.22;6105903;28;20251;-66
2023/08/06 03:59:08;;;;;;;3.08;2.75;;;;;;;17.97;93.66;100512.38;6112872;28;20244;-65
2023/08/06 04:02:29;;;;;;;3.40;3.05;;;;;;;18.04;93.76;100516.03;6103392;28;20231;-66
2023/08/06 04:05:50;;;;;;;3.50;2.63;;;;;;;18.02;93.08;100515.38;6110909;28;20255;-66
2023/08/06 04:09:13;;;;;;;4.28;3.10;;;;;;;17.96;93.25;100507.97;6115942;29;20509;-66
2023/08/06 04:12:36;;;;;;;3.25;2.95;;;;;;;18.02;93.03;100508.03;6113074;29;20232;-66
2023/08/06 04:16:01;;;;;;;4.53;2.70;;;;;;;17.95;92.71;100512.56;6109845;28;20227;-66
2023/08/06 04:19:22;;;;;;;2.28;2.15;;;;;;;17.90;92.74;100516.94;6114386;28;20520;-66
2023/08/06 04:22:43;;;;;;;2.85;2.53;;;;;;;17.97;92.73;100515.94;6117429;28;20782;-66
2023/08/06 04:26:05;;;;;;;2.88;2.67;;;;;;;17.95;92.33;100520.75;6110463;28;20283;-66
2023/08/06 04:29:28;;;;;;;2.72;2.42;;;;;;;17.97;92.29;100526.00;6121001;28;20601;-66
2023/08/06 04:32:51;;;;;;;4.05;2.40;;;;;;;18.01;92.09;100522.72;6110416;28;20943;-65
2023/08/06 04:36:12;;;;;;;2.70;2.50;;;;;;;18.00;91.96;100525.63;6109228;28;20610;-66
2023/08/06 04:39:33;;;;;;;4.22;2.75;;;;;;;17.92;91.84;100529.31;6107928;28;20223;-66
2023/08/06 04:42:55;;;;;;;2.83;2.63;;;;;;;17.90;91.68;100525.13;6114081;28;20232;-66
2023/08/06 04:46:17;;;;;;;2.28;2.00;;;;;;;17.89;91.71;100526.13;6113950;28;20223;-66
2023/08/06 04:49:37;;;;;;;2.90;2.60;;;;;;;17.93;91.82;100525.56;6113846;28;20235;-66
2023/08/06 04:52:58;;;;;;;3.30;3.03;;;;;;;17.85;92.08;100524.81;6108411;28;20686;-66
2023/08/06 04:56:19;;;;;;;3.57;2.90;;;;;;;17.85;92.34;100522.94;6114379;28;20243;-65
2023/08/06 04:59:42;;;;;;;5.72;2.75;;;;;;;17.81;92.92;100521.66;6115037;28;20235;-65
2023/08/06 05:03:04;;;;;;;5.32;3.03;;;;;;;17.83;92.96;100519.56;6107642;28;20236;-65
2023/08/06 05:06:25;;;;;;;4.05;3.67;;;;;;;17.86;93.28;100515.59;6110704;28;20238;-65
2023/08/06 05:09:45;;;;;;;3.65;3.03;;;;;;;17.85;93.42;100516.66;6115180;28;20231;-65
2023/08/06 05:13:08;;;;;;;4.35;3.55;;;;;;;17.93;93.22;100522.84;6121671;28;20236;-65
2023/08/06 05:16:29;;;;;;;4.32;3.17;;;;;;;17.82;93.56;100517.88;6115569;28;20239;-65
2023/08/06 05:19:50;;;;;;;3.40;3.15;;;;;;;17.83;93.64;100516.84;6119857;28;20231;-65
2023/08/06 05:23:12;;;;;;;4.63;3.35;;;;;;;17.85;94.12;100509.31;6110213;28;20239;-66
2023/08/06 05:26:33;;;;;;;3.80;3.20;;;;;;;17.99;94.19;100523.94;6107494;29;20228;-66
2023/08/06 05:29:56;;;;;;;3.10;2.78;;;;;;;17.93;94.02;100519.25;6118275;28;20227;-66
2023/08/06 05:33:21;;;;;;;2.70;2.47;;;;;;;17.93;94.17;100522.84;6113325;28;20232;-65
2023/08/06 05:36:42;;;;;;;5.50;3.35;;;;;;;18.10;94.07;100516.09;6120572;28;20462;-66
2023/08/06 05:40:03;;;;;;;4.82;3.10;;;;;;;18.16;94.35;100512.59;6112386;29;20516;-65
2023/08/06 05:43:25;;;;;;;5.28;3.53;;;;;;;18.10;94.01;100516.09;6114546;28;20227;-65
2023/08/06 05:46:45;;;;;;;5.15;2.95;;;;;;;18.10;94.09;100515.25;6119369;28;20227;-66
2023/08/06 05:50:09;;;;;;;3.88;2.95;;;;;;;18.07;93.86;100513.75;6116381;28;20240;-66
2023/08/06 05:53:30;;;;;;;4.75;3.08;;;;;;;17.92;93.60;100503.94;6117076;28;20236;-66
2023/08/06 05:56:51;;;;;;;7.10;3.38;;;;;;;17.95;93.76;100503.53;6112155;28;20239;-66
2023/08/06 06:00:12;;;;;;;5.15;3.95;;;;;;;17.94;93.77;100497.22;6096844;28;20233;-66
2023/08/06 06:03:33;;;;;;;5.05;4.18;;;;;;;17.97;94.33;100496.84;6125597;28;20327;-65
2023/08/06 06:06:55;;;;;;;6.88;3.40;;;;;;;17.95;94.38;100498.09;6122657;28;20628;-65
2023/08/06 06:10:16;;;;;;;2.85;2.65;;;;;;;17.97;94.49;100499.59;6103541;29;20247;-67
2023/08/06 06:13:37;;;;;;;3.75;3.20;;;;;;;17.96;94.50;100505.25;6124912;29;20350;-66
2023/08/06 06:16:58;;;;;;;5.28;3.15;;;;;;;18.06;94.75;100501.16;6116013;28;20294;-66
2023/08/06 06:20:19;;;;;;;6.03;4.53;;;;;;;18.30;94.48;100500.78;6107451;28;20224;-66
2023/08/06 06:23:40;;;;;;;5.65;3.33;;;;;;;18.34;94.03;100495.75;6122805;28;20243;-66
2023/08/06 06:27:01;;;;;;;3.92;3.55;;;;;;;18.34;93.71;100501.22;6110405;28;20563;-66
2023/08/06 06:30:22;;;;;;;3.70;3.40;;;;;;;18.46;93.58;100498.84;6101854;28;20555;-65
2023/08/06 06:33:43;;;;;;;3.35;3.05;;;;;;;18.56;93.31;100500.22;6127128;28;20571;-66
2023/08/06 06:37:05;;;;;;;3.88;3.45;;;;;;;18.64;92.28;100491.88;6121734;28;20262;-66
2023/08/06 06:40:29;;;;;;;8.05;3.95;;;;;;;18.78;91.47;100495.53;6108133;28;20223;-65
2023/08/06 06:43:50;;;;;;;3.88;3.58;;;;;;;18.94;91.26;100479.69;6125329;28;20618;-65
2023/08/06 06:47:11;;;;;;;4.25;3.65;;;;;;;18.97;90.88;100483.91;6107908;28;20236;-66
2023/08/06 06:50:32;;;;;;;4.50;3.33;;;;;;;18.97;90.14;100484.78;6103764;28;20239;-66
2023/08/06 06:53:53;;;;;;;4.25;3.25;;;;;;;19.01;89.82;100485.19;6115012;29;20244;-65
2023/08/06 06:57:15;;;;;;;5.18;4.18;;;;;;;19.08;90.15;100477.91;6115786;28;20238;-65
2023/08/06 07:00:36;;;;;;;5.72;4.13;;;;;;;19.12;89.72;100485.50;6106286;28;20791;-67
2023/08/06 07:03:58;;;;;;;7.05;4.55;;;;;;;19.26;89.25;100485.56;6123521;28;20236;-67
2023/08/06 07:07:18;;;;;;;7.43;3.95;;;;;;;19.23;88.58;100485.97;6118547;28;20232;-66
2023/08/06 07:10:41;;;;;;;3.78;3.47;;;;;;;19.49;88.63;100486.13;6108739;28;20230;-66
2023/08/06 07:14:03;;;;;;;3.63;3.33;;;;;;;19.57;87.78;100491.44;6119681;28;20244;-66
2023/08/06 07:17:24;;;;;;;3.33;3.00;;;;;;;19.69;87.52;100484.34;6118419;28;20236;-66
2023/08/06 07:20:49;;;;;;;4.15;3.75;;;;;;;19.74;87.14;100490.88;6111516;28;20235;-66
2023/08/06 07:24:10;;;;;;;5.88;4.43;;;;;;;19.75;87.07;100489.00;6117917;28;20238;-66
2023/08/06 07:27:31;;;;;;;4.75;3.70;;;;;;;19.94;86.77;100489.03;6121983;28;20231;-65
2023/08/06 07:30:53;;;;;;;6.18;3.40;;;;;;;20.01;86.09;100483.59;6104726;28;20665;-67
2023/08/06 07:34:14;;;;;;;6.28;4.07;;;;;;;20.14;85.18;100488.25;6124441;28;20259;-66
2023/08/06 07:37:34;;;;;;;5.80;4.10;;;;;;;20.03;85.41;100492.44;6123771;28;20231;-66
2023/08/06 07:40:55;;;;;;;5.97;4.05;;;;;;;20.01;85.49;100491.81;6110510;28;20231;-66
2023/08/06 07:44:16;;;;;;;7.35;4.03;;;;;;;20.08;85.54;100500.88;6128356;28;20326;-66
2023/08/06 07:47:39;;;;;;;4.80;3.20;;;;;;;20.06;85.39;100502.13;6113336;28;22738;-66
2023/08/06 07:51:00;;;;;;;4.72;4.05;;;;;;;20.05;85.35;100498.53;6110476;28;20234;-66
2023/08/06 07:54:22;;;;;;;4.75;4.00;;;;;;;20.05;85.13;100498.53;6127857;28;20243;-66
2023/08/06 07:57:43;;;;;;;5.38;3.63;;;;;;;20.09;85.19;100496.25;6113269;29;20248;-67
2023/08/06 08:01:03;;;;;;;4.38;3.65;;;;;;;20.06;85.54;100493.94;6106142;28;20240;-66
2023/08/06 08:04:25;;;;;;;4.97;4.40;;;;;;;20.03;85.71;100495.19;6116028;28;20228;-66
2023/08/06 08:07:46;;;;;;;4.57;3.95;;;;;;;20.12;86.05;100493.09;6119804;28;20633;-66
2023/08/06 08:11:07;;;;;;;4.22;3.83;;;;;;;20.12;86.15;100482.16;6108363;28;20334;-66
2023/08/06 08:14:28;;;;;;;3.50;3.20;;;;;;;20.14;85.93;100489.09;6108427;28;20235;-66
2023/08/06 08:17:49;;;;;;;4.53;3.67;;;;;;;20.22;86.10;100480.72;6118542;28;20354;-66
2023/08/06 08:21:11;;;;;;;4.00;3.70;;;;;;;20.30;85.47;100483.25;6107280;28;20235;-66
2023/08/06 08:24:32;;;;;;;6.88;4.30;;;;;;;20.41;84.46;100476.31;6110673;29;20231;-66
2023/08/06 08:27:53;;;;;;;4.10;3.35;;;;;;;20.49;83.85;100481.59;6109631;28;20634;-66
2023/08/06 08:31:15;;;;;;;3.05;2.72;;;;;;;20.48;82.78;100485.41;6109749;28;20239;-66
2023/08/06 08:34:36;;;;;;;6.22;4.10;;;;;;;20.57;82.28;100478.63;6115821;28;20232;-67
2023/08/06 08:37:58;;;;;;;5.97;3.63;;;;;;;20.55;82.06;100478.84;6115853;28;20508;-66
2023/08/06 08:41:19;;;;;;;4.05;3.58;;;;;;;20.62;82.60;100474.22;6102942;28;20250;-66
2023/08/06 08:44:42;;;;;;;4.50;3.83;;;;;;;20.48;83.18;100477.19;6118929;28;20322;-65
2023/08/06 08:48:03;;;;;;;4.22;3.65;;;;;;;20.45;83.71;100477.59;6114792;28;20615;-66
2023/08/06 08:51:25;;;;;;;7.38;3.97;;;;;;;20.57;83.28;100473.16;6111842;28;20243;-66
2023/08/06 08:54:51;;;;;;;6.15;3.58;;;;;;;20.47;82.51;100472.75;6121813;28;20314;-66
2023/08/06 08:58:12;;;;;;;6.40;4.03;;;;;;;20.49;82.31;100476.13;6100831;28;20575;-66
2023/08/06 09:01:34;;;;;;;4.57;3.47;;;;;;;20.41;82.31;100468.09;6112956;28;20337;-66
2023/08/06 09:04:57;;;;;;;5.43;2.80;;;;;;;20.40;82.29;100471.91;6113530;28;20224;-66
2023/08/06 09:08:21;;;;;;;5.00;3.63;;;;;;;20.31;82.81;100463.06;6111488;28;20626;-65
2023/08/06 09:11:45;;;;;;;5.72;3.72;;;;;;;20.28;83.56;100460.72;6110816;28;20247;-67
2023/08/06 09:15:07;;;;;;;4.22;3.83;;;;;;;20.31;83.69;100476.75;6109667;28;20541;-67
2023/08/06 09:18:28;;;;;;;4.80;4.30;;;;;;;20.25;83.46;100466.63;6115254;28;20264;-66
2023/08/06 09:21:52;;;;;;;6.35;4.13;;;;;;;20.18;83.59;100471.22;6115408;28;20235;-66
2023/08/06 09:25:13;;;;;;;4.68;4.18;;;;;;;20.10;83.66;100476.03;6112402;28;20228;-66
2023/08/06 09:28:43;;;;;;;4.22;3.83;;;;;;;20.14;83.70;100483.63;6108710;28;20315;-67
2023/08/06 09:32:04;;;;;;;4.97;4.57;;;;;;;20.20;83.23;100476.50;6104224;28;20342;-66
2023/08/06 09:35:25;;;;;;;6.30;5.00;;;;;;;20.21;83.44;100475.47;6093055;28;20232;-65
2023/08/06 09:38:47;;;;;;;4.57;4.00;;;;;;;20.24;83.69;100475.88;6117646;28;20649;-66
2023/08/06 09:42:07;;;;;;;5.07;4.28;;;;;;;20.13;83.97;100486.59;6110433;28;20506;-67
2023/08/06 09:45:32;;;;;;;5.07;4.57;;;;;;;20.22;84.61;100480.72;6098791;28;20310;-66
2023/08/06 09:48:53;;;;;;;7.50;4.22;;;;;;;20.29;84.21;100476.13;6118081;28;20251;-67
2023/08/06 09:52:15;;;;;;;7.10;3.97;;;;;;;20.41;83.51;100474.44;6116982;28;20240;-66
2023/08/06 09:55:38;;;;;;;4.13;3.72;;;;;;;20.46;83.65;100471.06;6105269;28;20231;-66
2023/08/06 09:58:59;;;;;;;3.88;3.47;;;;;;;20.52;83.30;100481.19;6119325;28;20243;-66
2023/08/06 10:02:27;;;;;;;4.03;3.72;;;;;;;20.38;83.40;100474.03;6110725;28;20541;-66
2023/08/06 10:05:48;;;;;;;4.78;4.30;;;;;;;20.40;83.82;100480.94;6108928;29;20228;-67
2023/08/06 10:09:09;;;;;;;4.65;4.25;;;;;;;20.28;83.64;100477.16;6116144;28;20241;-66
2023/08/06 10:12:33;;;;;;;5.28;4.15;;;;;;;20.35;83.92;100469.81;6117686;28;20552;-66
2023/08/06 10:15:54;;;;;;;3.78;3.47;;;;;;;20.56;83.59;100469.59;6105354;28;20327;-66
2023/08/06 10:19:19;;;;;;;4.18;3.88;;;;;;;20.57;82.84;100473.16;6119445;28;20240;-67
2023/08/06 10:22:44;;;;;;;4.78;4.35;;;;;;;20.47;83.00;100473.59;6112879;28;20561;-66
2023/08/06 10:26:05;;;;;;;4.22;3.83;;;;;;;20.35;83.60;100474.41;6111228;28;20231;-66
2023/08/06 10:29:37;;;;;;;3.70;3.17;;;;;;;20.27;84.23;100463.69;6114428;29;20403;-66
2023/08/06 10:33:01;;;;;;;5.97;4.60;;;;;;;20.30;84.18;100468.72;6111072;29;20783;-66
2023/08/06 10:36:23;;;;;;;5.03;3.92;;;;;;;20.07;85.36;100460.88;6113798;28;20322;-66
2023/08/06 10:39:50;;;;;;;4.35;3.97;;;;;;;19.96;86.20;100460.66;6111461;28;20239;-66
2023/08/06 10:43:26;;;;;;;4.40;3.80;;;;;;;19.96;86.89;100455.16;6118746;28;22252;-67
2023/08/06 10:46:49;;;;;;;3.72;3.05;;;;;;;19.87;87.02;100460.00;6115064;28;20298;-66
2023/08/06 10:50:13;;;;;;;4.15;3.63;;;;;;;20.12;86.94;100452.03;6120512;28;20236;-66
2023/08/06 10:53:35;;;;;;;9.85;5.07;;;;;;;20.17;86.69;100450.34;6116042;28;20288;-66
2023/08/06 10:56:56;;;;;;;4.32;4.03;;;;;;;20.10;86.62;100445.94;6110382;28;20228;-66
2023/08/06 11:00:17;;;;;;;4.28;3.85;;;;;;;19.92;86.45;100444.63;6108761;28;20265;-68
2023/08/06 11:03:39;;;;;;;3.55;3.25;;;;;;;19.85;86.88;100434.72;6117970;28;20814;-66
2023/08/06 11:07:00;;;;;;;5.07;4.68;;;;;;;19.89;87.51;100438.72;6111309;28;20231;-68
2023/08/06 11:10:23;;;;;;;4.57;4.18;;;;;;;20.03;87.89;100434.13;6103652;28;20652;-67
2023/08/06 11:13:46;;;;;;;4.43;4.03;;;;;;;20.21;87.30;100429.78;6117672;28;20318;-66
2023/08/06 11:17:07;;;;;;;3.70;3.40;;;;;;;20.18;86.68;100427.41;6106700;29;20260;-66
2023/08/06 11:20:28;;;;;;;3.53;3.22;;;;;;;20.40;86.23;100423.44;6102333;29;20323;-66
2023/08/06 11:23:49;;;;;;;3.33;3.03;;;;;;;20.52;85.83;100413.56;6123695;28;20240;-66
2023/08/06 11:27:15;;;;;;;3.67;3.38;;;;;;;20.61;85.11;100412.25;6108268;28;20235;-66
2023/08/06 11:30:39;;;;;;;3.47;3.10;;;;;;;20.36;85.56;100429.56;6104962;28;20257;-66
2023/08/06 11:34:09;;;;;;;4.85;3.97;;;;;;;20.45;85.91;100418.19;6109848;29;20231;-66
2023/08/06 11:37:30;;;;;;;4.55;3.75;;;;;;;20.18;85.36;100416.47;6098638;28;20322;-66
2023/08/06 11:40:52;;;;;;;3.67;3.35;;;;;;;20.15;85.46;100425.06;6099676;28;20513;-66
2023/08/06 11:44:19;;;;;;;5.35;4.22;;;;;;;20.09;86.05;100427.84;6109831;28;20595;-67
2023/08/06 11:47:41;;;;;;;6.25;3.20;;;;;;;20.11;86.24;100432.03;6117147;28;20318;-67
2023/08/06 11:51:01;;;;;;;3.55;3.10;;;;;;;20.02;86.20;100426.97;6103820;29;20232;-66
2023/08/06 11:54:33;;;;;;;3.47;2.97;;;;;;;19.99;86.50;100425.47;6113057;28;20267;-67
2023/08/06 11:57:55;;;;;;;4.28;3.88;;;;;;;19.96;86.48;100425.91;6102058;29;20227;-66
2023/08/06 12:01:17;;;;;;;3.30;3.03;;;;;;;19.97;86.56;100429.47;6108657;29;20231;-66
2023/08/06 12:05:01;;;;;;;3.28;3.03;;;;;;;19.93;86.95;100429.06;6113118;28;20236;-67
2023/08/06 12:08:27;;;;;;;3.63;3.42;;;;;;;19.82;87.26;100415.97;6107814;28;20743;-67
2023/08/06 12:11:47;;;;;;;4.10;3.70;;;;;;;19.86;87.29;100418.09;6108487;28;20231;-66
2023/08/06 12:15:12;;;;;;;4.72;3.30;;;;;;;20.05;87.62;100416.44;6106237;29;20244;-66
2023/08/06 12:18:35;;;;;;;3.75;3.45;;;;;;;20.23;87.57;100411.25;6099902;29;20232;-67
2023/08/06 12:21:56;;;;;;;2.95;2.72;;;;;;;20.24;87.19;100407.44;6110474;28;20243;-65
2023/08/06 12:25:35;;;;;;;3.88;3.35;;;;;;;20.41;86.57;100407.84;6100905;29;20239;-66
2023/08/06 12:28:57;;;;;;;6.03;4.35;;;;;;;20.37;86.44;100398.38;6115350;28;20235;-66
2023/08/06 12:32:19;;;;;;;3.20;3.00;;;;;;;20.29;86.35;100396.72;6107856;29;20649;-65
2023/08/06 12:35:41;;;;;;;3.35;3.05;;;;;;;20.11;86.64;100399.19;6111498;28;20258;-66
2023/08/06 12:39:02;;;;;;;4.32;2.75;;;;;;;20.39;86.71;100402.59;6111839;29;20247;-66
2023/08/06 12:42:43;;;;;;;3.58;3.28;;;;;;;20.52;85.36;100399.00;6121503;28;20326;-67
2023/08/06 12:46:04;;;;;;;3.95;3.13;;;;;;;20.64;84.73;100392.69;6113215;28;20231;-66
2023/08/06 12:49:26;;;;;;;3.03;2.83;;;;;;;20.88;83.72;100390.31;6085462;28;20236;-67
2023/08/06 12:52:48;;;;;;;2.97;2.67;;;;;;;21.11;82.67;100387.97;6119938;28;20628;-66
2023/08/06 12:56:09;;;;;;;3.53;2.97;;;;;;;21.22;82.15;100387.25;6110447;28;20251;-66
2023/08/06 12:59:30;;;;;;;4.20;3.83;;;;;;;21.48;81.17;100389.91;6114335;28;20524;-66
2023/08/06 13:02:51;;;;;;;4.50;3.47;;;;;;;21.71;79.94;100384.72;6117301;28;20262;-66
2023/08/06 13:06:12;;;;;;;3.33;3.10;;;;;;;21.88;79.01;100382.31;6114441;28;20228;-67
2023/08/06 13:09:34;;;;;;;3.83;3.53;;;;;;;22.28;77.35;100381.78;6118440;28;20326;-67
2023/08/06 13:12:54;;;;;;;3.72;3.42;;;;;;;22.40;76.86;100375.56;6114502;28;20243;-67
2023/08/06 13:16:15;;;;;;;6.05;3.05;;;;;;;22.69;75.71;100383.97;6094150;28;20259;-66
2023/08/06 13:19:36;;;;;;;4.18;3.13;;;;;;;22.83;75.42;100380.03;6097877;28;20478;-64
2023/08/06 13:23:00;;;;;;;3.50;2.67;;;;;;;23.00;76.04;100380.25;6104294;28;20235;-67
2023/08/06 13:26:23;;;;;;;3.13;2.92;;;;;;;22.58;75.57;100375.59;6095806;28;20232;-67
2023/08/06 13:29:43;;;;;;;6.35;3.80;;;;;;;22.40;76.54;100372.81;6108584;28;20232;-67
2023/08/06 13:33:06;;;;;;;7.00;3.38;;;;;;;22.92;75.72;100372.31;6111679;28;20231;-66
2023/08/06 13:36:27;;;;;;;4.07;3.58;;;;;;;22.28;75.85;100379.03;6108668;28;20265;-67
2023/08/06 13:39:48;;;;;;;4.25;3.85;;;;;;;22.59;75.31;100383.63;6099581;28;20236;-68
2023/08/06 13:43:10;;;;;;;4.05;2.85;;;;;;;22.38;76.11;100374.94;6108013;28;20235;-68
2023/08/06 13:46:31;;;;;;;3.97;2.88;;;;;;;22.26;76.27;100372.91;6101543;28;20771;-67
2023/08/06 13:49:52;;;;;;;2.83;2.53;;;;;;;21.87;76.97;100365.00;6110443;29;20235;-67
2023/08/06 13:53:13;;;;;;;5.45;3.10;;;;;;;22.14;77.83;100371.13;6101101;29;20243;-66
2023/08/06 13:56:37;;;;;;;4.25;3.75;;;;;;;22.10;77.81;100372.63;6118365;28;20228;-67
2023/08/06 13:59:59;;;;;;;3.50;3.20;;;;;;;22.09;77.95;100371.78;6119328;28;20577;-66
2023/08/06 14:03:20;;;;;;;4.25;3.15;;;;;;;22.23;77.12;100369.78;6114765;28;20630;-67
2023/08/06 14:06:40;;;;;;;3.38;2.15;;;;;;;22.56;76.65;100373.06;6119818;28;20242;-66
2023/08/06 14:10:01;;;;;;;5.20;2.70;;;;;;;22.65;75.73;100369.00;6108415;28;20236;-67
2023/08/06 14:13:23;;;;;;;6.90;3.22;;;;;;;22.28;75.15;100378.19;6076966;28;20232;-67
2023/08/06 14:16:45;;;;;;;2.80;2.10;;;;;;;22.06;75.23;100369.50;6108335;29;20239;-66
2023/08/06 14:20:11;;;;;;;2.35;2.15;;;;;;;22.10;75.12;100373.47;6106180;28;20970;-66
2023/08/06 14:23:32;;;;;;;3.10;2.10;;;;;;;22.35;75.41;100375.38;6114584;28;20247;-66
2023/08/06 14:26:53;;;;;;;1.95;1.65;;;;;;;22.72;74.69;100367.03;6111030;28;20235;-67
2023/08/06 14:30:13;;;;;;;2.13;1.90;;;;;;;22.65;73.67;100369.00;6107705;28;20752;-67
2023/08/06 14:33:35;;;;;;;2.83;2.35;;;;;;;22.52;73.78;100374.59;6111554;29;20264;-67
2023/08/06 14:36:57;;;;;;;1.98;1.65;;;;;;;22.57;74.37;100379.44;6116529;28;20561;-67
2023/08/06 14:40:18;;;;;;;1.77;1.65;;;;;;;22.68;73.86;100375.94;6112401;28;20236;-67
2023/08/06 14:43:38;;;;;;;2.58;1.88;;;;;;;22.95;72.53;100372.69;6105415;28;20600;-67
2023/08/06 14:46:59;;;;;;;2.40;2.20;;;;;;;23.18;71.06;100368.41;6117449;28;20900;-67
2023/08/06 14:50:21;;;;;;;2.50;2.08;;;;;;;23.44;71.53;100379.97;6110182;28;20232;-67
2023/08/06 14:53:42;;;;;;;2.33;1.70;;;;;;;23.66;70.67;100381.13;6123088;28;20244;-66
2023/08/06 14:57:03;;;;;;;1.60;1.50;;;;;;;23.03;71.19;100379.78;6086075;28;20300;-66
2023/08/06 15:00:24;;;;;;;4.22;2.00;;;;;;;22.99;71.60;100387.66;6102186;29;20243;-66
2023/08/06 15:03:45;;;;;;;1.88;1.25;;;;;;;22.56;72.11;100384.06;6098495;28;20240;-67
2023/08/06 15:07:09;;;;;;;4.22;1.88;;;;;;;22.29;71.71;100390.88;6122599;28;20269;-67
2023/08/06 15:10:30;;;;;;;2.75;1.85;;;;;;;22.02;71.62;100394.88;6110759;28;20542;-67
2023/08/06 15:13:51;;;;;;;4.25;2.03;;;;;;;21.94;72.03;100390.50;6112138;28;20240;-67
2023/08/06 15:17:12;;;;;;;2.35;1.60;;;;;;;21.81;71.66;100401.53;6099212;28;20243;-66
2023/08/06 15:20:32;;;;;;;2.70;2.05;;;;;;;21.67;72.10;100396.34;6114331;28;20263;-67
2023/08/06 15:23:54;;;;;;;1.77;1.45;;;;;;;21.40;72.51;100401.94;6115973;28;20232;-66
2023/08/06 15:27:17;;;;;;;2.60;1.55;;;;;;;21.76;73.23;100398.59;6093745;28;20231;-66
2023/08/06 15:30:39;;;;;;;1.90;1.25;;;;;;;21.72;73.10;100391.88;6106186;28;21014;-67
2023/08/06 15:34:00;;;;;;;3.30;1.40;;;;;;;21.57;73.73;100396.81;6104042;28;20323;-66
2023/08/06 15:37:29;;;;;;;1.67;1.50;;;;;;;21.59;73.57;100397.41;6068490;28;20232;-66
2023/08/06 15:40:52;;;;;;;1.58;1.48;;;;;;;21.33;73.97;100403.06;6094980;28;20624;-66